Port-Daniel, Canada
Current Conditions -  °F | °C
As of 1:00 PM on Friday 21 Nov 2014 (Local Time) from CYGP Reporting Station
Blowing Snow Blowing Snow  
Wind Chill: 14°   Ceiling: Unl
Heat Index: 27°   Visibility: 15mi
Dew Point: 12°   Wind: 16mph
Humidity: 55%   Direction: 280°W
Pressure: 29.62"   Gusts: 29mph
Location:  48.18°N, 64.98°W
Report Text: CYGP 211800Z 28014G25KT 15SM DRSN FEW025 SCT140 M03/M11 A2962 RMK CU2AC2 SLP031
Loading
Personal Weather Stations






























Interactive Weather Map New forecast layout! Learn more

10-Day Weather Forecast

Advertisements
Track Severe Weather on mobile